Mammoth Lakes, California
Current Conditions -  °F | °C
As of 8:55 PM on Saturday 22 Nov 2014 (Local Time) from KMMH Reporting Station
Clear Clear  
Wind Chill: 29°   Ceiling: Unl
Heat Index: 37°   Visibility: 10mi
Dew Point: 16°   Wind: 13mph
Humidity: 41%   Direction: 350°N
Pressure: 30.16"   Gusts: NA
Location:  37.65°N, 118.97°W
Report Text: KMMH 230455Z AUTO 35011KT 10SM CLR 03/M09 A3016 RMK AO1
Loading
Personal Weather Stations






























Interactive Weather Map New forecast layout! Learn more

10-Day Weather Forecast

Advertisements
Track Severe Weather on mobile